Terminal Aerodrome Forecast
Issued by NWS Duluth, MN

Home | Current Version | Previous Version | Text Only | Print | Product List | Glossary On
Versions: 1 2 3 4 5 6 7 8 9 10 11 12 13 14 15 16 17 18 19 20 21 22 23 24 25 26 27 28
667
FTUS43 KDLH 260005 AAB
TAFDLH
TAF AMD
KDLH 260005Z 2600/2624 08011G18KT P6SM VCSH BKN005 OVC023
     FM260200 06011G21KT 5SM -RA BR OVC015
     FM260700 05012G20KT 3SM -RA BR OVC007
     FM261200 05014G22KT 5SM FZRAPL BR OVC008
     FM261400 04013G21KT 2SM FZRAPL OVC008
     FM261700 03012KT 3SM -RAPL BR OVC008
     FM261800 02012KT 3SM -DZSN BR OVC008
     FM262000 01011KT P6SM OVC008=

USA.gov is the U.S. government's official web portal to all federal, state and local government web resources and services.